sensor_id;sensor_type;location;lat;lon;timestamp;pressure;altitude;pressure_sealevel;temperature;humidity
68320;BME280;55168;51.120;17.024;2023-10-08T00:00:00;100110;;;9.6;100.0
68320;BME280;55168;51.120;17.024;2023-10-08T00:01:03;100110;;;9.7;100.0
68320;BME280;55168;51.120;17.024;2023-10-08T00:02:00;100120;;;9.7;100.0
68320;BME280;55168;51.120;17.024;2023-10-08T00:03:00;100120;;;9.7;100.0
68320;BME280;55168;51.120;17.024;2023-10-08T00:04:00;100130;;;9.8;100.0
68320;BME280;55168;51.120;17.024;2023-10-08T00:05:00;100130;;;9.7;100.0
68320;BME280;55168;51.120;17.024;2023-10-08T00:06:02;100140;;;9.8;100.0
68320;BME280;55168;51.120;17.024;2023-10-08T00:07:00;100140;;;9.7;100.0
68320;BME280;55168;51.120;17.024;2023-10-08T00:08:00;100150;;;9.7;100.0
68320;BME280;55168;51.120;17.024;2023-10-08T00:09:00;100140;;;9.7;100.0
68320;BME280;55168;51.120;17.024;2023-10-08T00:10:00;100140;;;9.8;100.0
68320;BME280;55168;51.120;17.024;2023-10-08T00:11:00;100130;;;9.8;100.0
68320;BME280;55168;51.120;17.024;2023-10-08T00:12:00;100130;;;9.8;100.0
68320;BME280;55168;51.120;17.024;2023-10-08T00:13:00;100120;;;9.8;100.0
68320;BME280;55168;51.120;17.024;2023-10-08T00:14:00;100120;;;9.8;100.0
68320;BME280;55168;51.120;17.024;2023-10-08T00:15:00;100120;;;9.6;100.0
68320;BME280;55168;51.120;17.024;2023-10-08T00:16:00;100120;;;9.6;100.0
68320;BME280;55168;51.120;17.024;2023-10-08T00:17:00;100120;;;9.6;100.0
68320;BME280;55168;51.120;17.024;2023-10-08T00:18:00;100120;;;9.7;100.0
68320;BME280;55168;51.120;17.024;2023-10-08T00:19:00;100120;;;9.6;100.0
68320;BME280;55168;51.120;17.024;2023-10-08T00:20:00;100130;;;9.6;100.0
68320;BME280;55168;51.120;17.024;2023-10-08T00:21:00;100130;;;9.6;100.0
68320;BME280;55168;51.120;17.024;2023-10-08T00:22:00;100120;;;9.7;100.0
68320;BME280;55168;51.120;17.024;2023-10-08T00:23:01;100120;;;9.7;100.0
68320;BME280;55168;51.120;17.024;2023-10-08T00:24:00;100120;;;9.7;100.0
68320;BME280;55168;51.120;17.024;2023-10-08T00:25:00;100120;;;9.8;100.0
68320;BME280;55168;51.120;17.024;2023-10-08T00:26:00;100130;;;9.8;100.0
68320;BME280;55168;51.120;17.024;2023-10-08T00:27:00;100130;;;9.8;100.0
68320;BME280;55168;51.120;17.024;2023-10-08T00:28:00;100130;;;9.8;100.0
68320;BME280;55168;51.120;17.024;2023-10-08T00:29:01;100130;;;9.8;100.0
68320;BME280;55168;51.120;17.024;2023-10-08T00:30:00;100130;;;9.8;100.0
68320;BME280;55168;51.120;17.024;2023-10-08T00:31:01;100130;;;9.8;100.0
68320;BME280;55168;51.120;17.024;2023-10-08T00:32:00;100130;;;9.7;100.0
68320;BME280;55168;51.120;17.024;2023-10-08T00:33:00;100140;;;9.7;100.0
68320;BME280;55168;51.120;17.024;2023-10-08T00:34:00;100140;;;9.6;100.0
68320;BME280;55168;51.120;17.024;2023-10-08T00:35:00;100140;;;9.6;100.0
68320;BME280;55168;51.120;17.024;2023-10-08T00:36:00;100140;;;9.6;100.0
68320;BME280;55168;51.120;17.024;2023-10-08T00:37:00;100150;;;9.7;100.0
68320;BME280;55168;51.120;17.024;2023-10-08T00:38:00;100150;;;9.7;100.0
68320;BME280;55168;51.120;17.024;2023-10-08T00:39:00;100150;;;9.7;100.0
68320;BME280;55168;51.120;17.024;2023-10-08T00:40:00;100150;;;9.7;100.0
68320;BME280;55168;51.120;17.024;2023-10-08T00:41:00;100150;;;9.6;100.0
68320;BME280;55168;51.120;17.024;2023-10-08T00:42:00;100140;;;9.7;100.0
68320;BME280;55168;51.120;17.024;2023-10-08T00:43:00;100140;;;9.8;100.0
68320;BME280;55168;51.120;17.024;2023-10-08T00:44:00;100140;;;9.9;100.0
68320;BME280;55168;51.120;17.024;2023-10-08T00:45:00;100140;;;9.8;100.0
68320;BME280;55168;51.120;17.024;2023-10-08T00:46:02;100130;;;9.8;100.0
68320;BME280;55168;51.120;17.024;2023-10-08T00:47:00;100140;;;9.9;100.0
68320;BME280;55168;51.120;17.024;2023-10-08T00:48:00;100130;;;9.8;100.0
68320;BME280;55168;51.120;17.024;2023-10-08T00:49:00;100130;;;9.7;100.0
68320;BME280;55168;51.120;17.024;2023-10-08T00:50:00;100130;;;9.7;100.0
68320;BME280;55168;51.120;17.024;2023-10-08T00:51:01;100130;;;9.7;100.0
68320;BME280;55168;51.120;17.024;2023-10-08T00:52:00;100120;;;9.8;100.0
68320;BME280;55168;51.120;17.024;2023-10-08T00:53:00;100130;;;9.8;100.0
68320;BME280;55168;51.120;17.024;2023-10-08T00:54:01;100130;;;9.8;100.0
68320;BME280;55168;51.120;17.024;2023-10-08T00:55:00;100130;;;9.7;100.0
68320;BME280;55168;51.120;17.024;2023-10-08T00:56:00;100130;;;9.7;100.0
68320;BME280;55168;51.120;17.024;2023-10-08T00:57:00;100130;;;9.6;100.0
68320;BME280;55168;51.120;17.024;2023-10-08T00:58:00;100140;;;9.6;100.0
68320;BME280;55168;51.120;17.024;2023-10-08T00:59:00;100150;;;9.6;100.0
68320;BME280;55168;51.120;17.024;2023-10-08T01:00:00;100140;;;9.6;100.0
68320;BME280;55168;51.120;17.024;2023-10-08T01:01:00;100140;;;9.8;100.0
68320;BME280;55168;51.120;17.024;2023-10-08T01:02:00;100140;;;9.8;100.0
68320;BME280;55168;51.120;17.024;2023-10-08T01:03:00;100140;;;9.9;100.0
68320;BME280;55168;51.120;17.024;2023-10-08T01:04:00;100140;;;9.7;100.0
68320;BME280;55168;51.120;17.024;2023-10-08T01:05:00;100130;;;9.6;100.0
68320;BME280;55168;51.120;17.024;2023-10-08T01:06:00;100140;;;9.6;100.0
68320;BME280;55168;51.120;17.024;2023-10-08T01:07:03;100130;;;9.6;100.0
68320;BME280;55168;51.120;17.024;2023-10-08T01:08:00;100130;;;9.7;100.0
68320;BME280;55168;51.120;17.024;2023-10-08T01:09:00;100130;;;9.7;100.0
68320;BME280;55168;51.120;17.024;2023-10-08T01:10:00;100120;;;9.5;100.0
68320;BME280;55168;51.120;17.024;2023-10-08T01:12:16;100120;;;9.4;100.0
68320;BME280;55168;51.120;17.024;2023-10-08T01:13:00;100120;;;9.4;100.0
68320;BME280;55168;51.120;17.024;2023-10-08T01:14:00;100120;;;9.5;100.0
68320;BME280;55168;51.120;17.024;2023-10-08T01:15:00;100120;;;9.6;100.0
68320;BME280;55168;51.120;17.024;2023-10-08T01:16:00;100120;;;9.6;100.0
68320;BME280;55168;51.120;17.024;2023-10-08T01:17:00;100110;;;9.6;100.0
68320;BME280;55168;51.120;17.024;2023-10-08T01:18:00;100110;;;9.6;100.0
68320;BME280;55168;51.120;17.024;2023-10-08T01:19:00;100110;;;9.5;100.0
68320;BME280;55168;51.120;17.024;2023-10-08T01:20:00;100110;;;9.5;100.0
68320;BME280;55168;51.120;17.024;2023-10-08T01:21:00;100120;;;9.6;100.0
68320;BME280;55168;51.120;17.024;2023-10-08T01:22:03;100120;;;9.6;100.0
68320;BME280;55168;51.120;17.024;2023-10-08T01:23:02;100130;;;9.6;100.0
68320;BME280;55168;51.120;17.024;2023-10-08T01:24:01;100140;;;9.5;100.0
68320;BME280;55168;51.120;17.024;2023-10-08T01:25:00;100140;;;9.5;100.0
68320;BME280;55168;51.120;17.024;2023-10-08T01:26:00;100140;;;9.6;100.0
68320;BME280;55168;51.120;17.024;2023-10-08T01:27:00;100140;;;9.6;100.0
68320;BME280;55168;51.120;17.024;2023-10-08T01:28:00;100140;;;9.7;100.0
68320;BME280;55168;51.120;17.024;2023-10-08T01:29:00;100140;;;9.8;100.0
68320;BME280;55168;51.120;17.024;2023-10-08T01:30:00;100140;;;9.7;100.0
68320;BME280;55168;51.120;17.024;2023-10-08T01:31:00;100130;;;9.5;100.0
68320;BME280;55168;51.120;17.024;2023-10-08T01:32:00;100140;;;9.6;100.0
68320;BME280;55168;51.120;17.024;2023-10-08T01:33:00;100130;;;9.7;100.0
68320;BME280;55168;51.120;17.024;2023-10-08T01:34:00;100130;;;9.8;100.0
68320;BME280;55168;51.120;17.024;2023-10-08T01:35:00;100130;;;9.6;100.0
68320;BME280;55168;51.120;17.024;2023-10-08T01:36:00;100140;;;9.6;100.0
68320;BME280;55168;51.120;17.024;2023-10-08T01:37:00;100140;;;9.6;100.0
68320;BME280;55168;51.120;17.024;2023-10-08T01:38:00;100140;;;9.7;100.0
68320;BME280;55168;51.120;17.024;2023-10-08T01:39:00;100140;;;9.7;100.0
68320;BME280;55168;51.120;17.024;2023-10-08T01:40:00;100140;;;9.8;100.0
68320;BME280;55168;51.120;17.024;2023-10-08T01:41:00;100140;;;9.8;100.0
68320;BME280;55168;51.120;17.024;2023-10-08T01:42:00;100140;;;9.8;100.0
68320;BME280;55168;51.120;17.024;2023-10-08T01:43:00;100150;;;9.8;100.0
68320;BME280;55168;51.120;17.024;2023-10-08T01:44:00;100150;;;9.7;100.0
68320;BME280;55168;51.120;17.024;2023-10-08T01:45:00;100150;;;9.7;100.0
68320;BME280;55168;51.120;17.024;2023-10-08T01:46:02;100150;;;9.8;100.0
68320;BME280;55168;51.120;17.024;2023-10-08T01:47:00;100160;;;9.6;100.0
68320;BME280;55168;51.120;17.024;2023-10-08T01:48:00;100150;;;9.5;100.0
68320;BME280;55168;51.120;17.024;2023-10-08T01:49:00;100150;;;9.6;100.0
68320;BME280;55168;51.120;17.024;2023-10-08T01:50:00;100150;;;9.5;100.0
68320;BME280;55168;51.120;17.024;2023-10-08T01:51:00;100150;;;9.4;100.0
68320;BME280;55168;51.120;17.024;2023-10-08T01:52:00;100140;;;9.4;100.0
68320;BME280;55168;51.120;17.024;2023-10-08T01:53:00;100150;;;9.4;100.0
68320;BME280;55168;51.120;17.024;2023-10-08T01:54:00;100150;;;9.6;100.0
68320;BME280;55168;51.120;17.024;2023-10-08T01:55:00;100150;;;9.4;100.0
68320;BME280;55168;51.120;17.024;2023-10-08T01:56:00;100160;;;9.4;100.0
68320;BME280;55168;51.120;17.024;2023-10-08T01:57:00;100170;;;9.3;100.0
68320;BME280;55168;51.120;17.024;2023-10-08T01:58:00;100170;;;9.4;100.0
68320;BME280;55168;51.120;17.024;2023-10-08T01:59:00;100180;;;9.4;100.0
68320;BME280;55168;51.120;17.024;2023-10-08T02:00:00;100180;;;9.4;100.0
68320;BME280;55168;51.120;17.024;2023-10-08T02:01:00;100190;;;9.4;100.0
68320;BME280;55168;51.120;17.024;2023-10-08T02:02:00;100190;;;9.4;100.0
68320;BME280;55168;51.120;17.024;2023-10-08T02:03:00;100190;;;9.3;100.0
68320;BME280;55168;51.120;17.024;2023-10-08T02:04:00;100190;;;9.3;100.0
68320;BME280;55168;51.120;17.024;2023-10-08T02:05:00;100190;;;9.2;100.0
68320;BME280;55168;51.120;17.024;2023-10-08T02:06:00;100190;;;9.2;100.0
68320;BME280;55168;51.120;17.024;2023-10-08T02:07:01;100190;;;9.3;100.0
68320;BME280;55168;51.120;17.024;2023-10-08T02:08:00;100190;;;9.2;100.0
68320;BME280;55168;51.120;17.024;2023-10-08T02:09:00;100180;;;9.2;100.0
68320;BME280;55168;51.120;17.024;2023-10-08T02:10:00;100180;;;9.1;100.0
68320;BME280;55168;51.120;17.024;2023-10-08T02:11:00;100190;;;9.3;100.0
68320;BME280;55168;51.120;17.024;2023-10-08T02:12:00;100190;;;9.4;100.0
68320;BME280;55168;51.120;17.024;2023-10-08T02:13:00;100200;;;9.4;100.0
68320;BME280;55168;51.120;17.024;2023-10-08T02:14:01;100200;;;9.4;100.0
68320;BME280;55168;51.120;17.024;2023-10-08T02:15:00;100200;;;9.4;100.0
68320;BME280;55168;51.120;17.024;2023-10-08T02:16:00;100200;;;9.4;100.0
68320;BME280;55168;51.120;17.024;2023-10-08T02:17:00;100200;;;9.3;100.0
68320;BME280;55168;51.120;17.024;2023-10-08T02:18:00;100200;;;9.2;100.0
68320;BME280;55168;51.120;17.024;2023-10-08T02:19:00;100200;;;9.3;100.0
68320;BME280;55168;51.120;17.024;2023-10-08T02:20:00;100200;;;9.3;100.0
68320;BME280;55168;51.120;17.024;2023-10-08T02:21:00;100200;;;9.2;100.0
68320;BME280;55168;51.120;17.024;2023-10-08T02:22:00;100200;;;9.2;100.0
68320;BME280;55168;51.120;17.024;2023-10-08T02:23:00;100210;;;9.2;100.0
68320;BME280;55168;51.120;17.024;2023-10-08T02:24:00;100220;;;9.3;100.0
68320;BME280;55168;51.120;17.024;2023-10-08T02:25:00;100230;;;9.3;100.0
68320;BME280;55168;51.120;17.024;2023-10-08T02:26:00;100230;;;9.4;100.0
68320;BME280;55168;51.120;17.024;2023-10-08T02:27:00;100230;;;9.4;100.0
68320;BME280;55168;51.120;17.024;2023-10-08T02:28:01;100240;;;9.4;100.0
68320;BME280;55168;51.120;17.024;2023-10-08T02:29:00;100250;;;9.4;100.0
68320;BME280;55168;51.120;17.024;2023-10-08T02:30:00;100250;;;9.4;100.0
68320;BME280;55168;51.120;17.024;2023-10-08T02:31:00;100240;;;9.4;100.0
68320;BME280;55168;51.120;17.024;2023-10-08T02:32:00;100240;;;9.3;100.0
68320;BME280;55168;51.120;17.024;2023-10-08T02:33:00;100240;;;9.3;100.0
68320;BME280;55168;51.120;17.024;2023-10-08T02:34:00;100250;;;9.3;100.0
68320;BME280;55168;51.120;17.024;2023-10-08T02:35:00;100260;;;9.1;100.0
68320;BME280;55168;51.120;17.024;2023-10-08T02:36:02;100270;;;9.1;100.0
68320;BME280;55168;51.120;17.024;2023-10-08T02:37:00;100280;;;9.1;100.0
68320;BME280;55168;51.120;17.024;2023-10-08T02:38:00;100280;;;9.1;100.0
68320;BME280;55168;51.120;17.024;2023-10-08T02:39:00;100290;;;9.1;100.0
68320;BME280;55168;51.120;17.024;2023-10-08T02:40:00;100280;;;9.1;100.0
68320;BME280;55168;51.120;17.024;2023-10-08T02:41:00;100280;;;9.1;100.0
68320;BME280;55168;51.120;17.024;2023-10-08T02:42:00;100280;;;9.0;100.0
68320;BME280;55168;51.120;17.024;2023-10-08T02:43:00;100290;;;9.0;100.0
68320;BME280;55168;51.120;17.024;2023-10-08T02:44:00;100280;;;9.0;100.0
68320;BME280;55168;51.120;17.024;2023-10-08T02:45:00;100280;;;9.1;100.0
68320;BME280;55168;51.120;17.024;2023-10-08T02:46:00;100290;;;9.1;100.0
68320;BME280;55168;51.120;17.024;2023-10-08T02:47:00;100290;;;9.1;100.0
68320;BME280;55168;51.120;17.024;2023-10-08T02:48:00;100280;;;9.0;100.0
68320;BME280;55168;51.120;17.024;2023-10-08T02:49:00;100280;;;9.0;100.0
68320;BME280;55168;51.120;17.024;2023-10-08T02:50:00;100280;;;8.9;100.0
68320;BME280;55168;51.120;17.024;2023-10-08T02:51:00;100280;;;9.0;100.0
68320;BME280;55168;51.120;17.024;2023-10-08T02:52:00;100280;;;9.0;100.0
68320;BME280;55168;51.120;17.024;2023-10-08T02:53:00;100270;;;9.1;100.0
68320;BME280;55168;51.120;17.024;2023-10-08T02:54:00;100280;;;9.0;100.0
68320;BME280;55168;51.120;17.024;2023-10-08T02:55:00;100280;;;8.9;100.0
68320;BME280;55168;51.120;17.024;2023-10-08T02:56:00;100280;;;8.9;100.0
68320;BME280;55168;51.120;17.024;2023-10-08T02:57:00;100290;;;8.9;100.0
68320;BME280;55168;51.120;17.024;2023-10-08T02:58:00;100290;;;8.8;100.0
68320;BME280;55168;51.120;17.024;2023-10-08T02:59:00;100290;;;8.9;100.0
68320;BME280;55168;51.120;17.024;2023-10-08T03:00:01;100300;;;8.8;100.0
68320;BME280;55168;51.120;17.024;2023-10-08T03:01:00;100290;;;8.8;100.0
68320;BME280;55168;51.120;17.024;2023-10-08T03:02:00;100290;;;8.8;100.0
68320;BME280;55168;51.120;17.024;2023-10-08T03:03:00;100290;;;8.9;100.0
68320;BME280;55168;51.120;17.024;2023-10-08T03:04:00;100290;;;9.0;100.0
68320;BME280;55168;51.120;17.024;2023-10-08T03:05:00;100290;;;9.0;100.0
68320;BME280;55168;51.120;17.024;2023-10-08T03:06:00;100290;;;9.1;100.0
68320;BME280;55168;51.120;17.024;2023-10-08T03:07:00;100280;;;9.1;100.0
68320;BME280;55168;51.120;17.024;2023-10-08T03:08:00;100280;;;9.1;100.0
68320;BME280;55168;51.120;17.024;2023-10-08T03:09:00;100290;;;9.1;100.0
68320;BME280;55168;51.120;17.024;2023-10-08T03:10:00;100290;;;9.1;100.0
68320;BME280;55168;51.120;17.024;2023-10-08T03:11:00;100300;;;9.1;100.0
68320;BME280;55168;51.120;17.024;2023-10-08T03:12:00;100300;;;9.1;100.0
68320;BME280;55168;51.120;17.024;2023-10-08T03:13:00;100290;;;9.1;100.0
68320;BME280;55168;51.120;17.024;2023-10-08T03:14:00;100300;;;9.1;100.0
68320;BME280;55168;51.120;17.024;2023-10-08T03:15:00;100290;;;9.1;100.0
68320;BME280;55168;51.120;17.024;2023-10-08T03:16:00;100290;;;9.1;100.0
68320;BME280;55168;51.120;17.024;2023-10-08T03:17:00;100290;;;9.1;100.0
68320;BME280;55168;51.120;17.024;2023-10-08T03:18:00;100290;;;9.1;100.0
68320;BME280;55168;51.120;17.024;2023-10-08T03:19:01;100290;;;9.1;100.0
68320;BME280;55168;51.120;17.024;2023-10-08T03:20:00;100290;;;9.1;100.0
68320;BME280;55168;51.120;17.024;2023-10-08T03:21:00;100290;;;9.1;100.0
68320;BME280;55168;51.120;17.024;2023-10-08T03:22:00;100300;;;9.1;100.0
68320;BME280;55168;51.120;17.024;2023-10-08T03:23:00;100310;;;9.1;100.0
68320;BME280;55168;51.120;17.024;2023-10-08T03:24:00;100310;;;9.1;100.0
68320;BME280;55168;51.120;17.024;2023-10-08T03:25:00;100320;;;9.1;100.0
68320;BME280;55168;51.120;17.024;2023-10-08T03:26:01;100310;;;9.2;100.0
68320;BME280;55168;51.120;17.024;2023-10-08T03:27:00;100310;;;9.2;100.0
68320;BME280;55168;51.120;17.024;2023-10-08T03:28:00;100320;;;9.1;100.0
68320;BME280;55168;51.120;17.024;2023-10-08T03:29:01;100320;;;9.1;100.0
68320;BME280;55168;51.120;17.024;2023-10-08T03:30:00;100330;;;9.1;100.0
68320;BME280;55168;51.120;17.024;2023-10-08T03:31:00;100340;;;9.1;100.0
68320;BME280;55168;51.120;17.024;2023-10-08T03:32:00;100340;;;9.1;100.0
68320;BME280;55168;51.120;17.024;2023-10-08T03:33:00;100340;;;9.1;100.0
68320;BME280;55168;51.120;17.024;2023-10-08T03:34:00;100340;;;9.2;100.0
68320;BME280;55168;51.120;17.024;2023-10-08T03:35:00;100340;;;9.2;100.0
68320;BME280;55168;51.120;17.024;2023-10-08T03:36:01;100340;;;9.1;100.0
68320;BME280;55168;51.120;17.024;2023-10-08T03:37:00;100350;;;9.1;100.0
68320;BME280;55168;51.120;17.024;2023-10-08T03:38:00;100350;;;9.1;100.0
68320;BME280;55168;51.120;17.024;2023-10-08T03:39:00;100350;;;9.1;100.0
68320;BME280;55168;51.120;17.024;2023-10-08T03:40:00;100340;;;9.1;100.0
68320;BME280;55168;51.120;17.024;2023-10-08T03:41:00;100340;;;9.1;100.0
68320;BME280;55168;51.120;17.024;2023-10-08T03:42:00;100350;;;9.1;100.0
68320;BME280;55168;51.120;17.024;2023-10-08T03:43:00;100350;;;9.1;100.0
68320;BME280;55168;51.120;17.024;2023-10-08T03:44:00;100350;;;9.1;100.0
68320;BME280;55168;51.120;17.024;2023-10-08T03:45:00;100350;;;9.1;100.0
68320;BME280;55168;51.120;17.024;2023-10-08T03:46:00;100360;;;9.1;100.0
68320;BME280;55168;51.120;17.024;2023-10-08T03:47:00;100360;;;9.1;100.0
68320;BME280;55168;51.120;17.024;2023-10-08T03:48:00;100370;;;9.1;100.0
68320;BME280;55168;51.120;17.024;2023-10-08T03:49:00;100370;;;9.2;100.0
68320;BME280;55168;51.120;17.024;2023-10-08T03:50:00;100370;;;9.2;100.0
68320;BME280;55168;51.120;17.024;2023-10-08T03:51:00;100370;;;9.2;100.0
68320;BME280;55168;51.120;17.024;2023-10-08T03:52:00;100370;;;9.2;100.0
68320;BME280;55168;51.120;17.024;2023-10-08T03:53:00;100370;;;9.2;100.0
68320;BME280;55168;51.120;17.024;2023-10-08T03:54:00;100380;;;9.2;100.0
68320;BME280;55168;51.120;17.024;2023-10-08T03:55:00;100380;;;9.2;100.0
68320;BME280;55168;51.120;17.024;2023-10-08T03:56:00;100380;;;9.2;100.0
68320;BME280;55168;51.120;17.024;2023-10-08T03:57:00;100380;;;9.2;100.0
68320;BME280;55168;51.120;17.024;2023-10-08T03:58:00;100370;;;9.2;100.0
68320;BME280;55168;51.120;17.024;2023-10-08T03:59:00;100370;;;9.1;100.0
68320;BME280;55168;51.120;17.024;2023-10-08T04:00:00;100370;;;9.1;100.0
68320;BME280;55168;51.120;17.024;2023-10-08T04:01:00;100380;;;9.1;100.0
68320;BME280;55168;51.120;17.024;2023-10-08T04:02:01;100380;;;9.1;100.0
68320;BME280;55168;51.120;17.024;2023-10-08T04:03:00;100380;;;9.1;100.0
68320;BME280;55168;51.120;17.024;2023-10-08T04:04:00;100380;;;9.1;100.0
68320;BME280;55168;51.120;17.024;2023-10-08T04:05:01;100380;;;9.1;100.0
68320;BME280;55168;51.120;17.024;2023-10-08T04:06:00;100390;;;9.1;100.0
68320;BME280;55168;51.120;17.024;2023-10-08T04:07:00;100390;;;9.0;100.0
68320;BME280;55168;51.120;17.024;2023-10-08T04:08:00;100390;;;9.0;100.0
68320;BME280;55168;51.120;17.024;2023-10-08T04:09:00;100390;;;9.0;100.0
68320;BME280;55168;51.120;17.024;2023-10-08T04:10:00;100390;;;9.0;100.0
68320;BME280;55168;51.120;17.024;2023-10-08T04:11:00;100390;;;9.1;100.0
68320;BME280;55168;51.120;17.024;2023-10-08T04:12:00;100390;;;9.1;100.0
68320;BME280;55168;51.120;17.024;2023-10-08T04:13:00;100390;;;9.1;100.0
68320;BME280;55168;51.120;17.024;2023-10-08T04:14:00;100390;;;9.1;100.0
68320;BME280;55168;51.120;17.024;2023-10-08T04:15:01;100390;;;9.1;100.0
68320;BME280;55168;51.120;17.024;2023-10-08T04:16:00;100390;;;9.1;100.0
68320;BME280;55168;51.120;17.024;2023-10-08T04:17:00;100390;;;9.1;100.0
68320;BME280;55168;51.120;17.024;2023-10-08T04:18:00;100390;;;9.1;100.0
68320;BME280;55168;51.120;17.024;2023-10-08T04:19:00;100390;;;9.0;100.0
68320;BME280;55168;51.120;17.024;2023-10-08T04:20:00;100390;;;9.0;100.0
68320;BME280;55168;51.120;17.024;2023-10-08T04:21:00;100390;;;9.0;100.0
68320;BME280;55168;51.120;17.024;2023-10-08T04:22:00;100390;;;9.0;100.0
68320;BME280;55168;51.120;17.024;2023-10-08T04:23:00;100380;;;9.0;100.0
68320;BME280;55168;51.120;17.024;2023-10-08T04:24:00;100380;;;9.0;100.0
68320;BME280;55168;51.120;17.024;2023-10-08T04:25:00;100370;;;9.0;100.0
68320;BME280;55168;51.120;17.024;2023-10-08T04:26:00;100360;;;9.0;100.0
68320;BME280;55168;51.120;17.024;2023-10-08T04:27:00;100360;;;9.0;100.0
68320;BME280;55168;51.120;17.024;2023-10-08T04:28:00;100360;;;9.0;100.0
68320;BME280;55168;51.120;17.024;2023-10-08T04:29:01;100360;;;9.0;100.0
68320;BME280;55168;51.120;17.024;2023-10-08T04:30:00;100360;;;9.0;100.0
68320;BME280;55168;51.120;17.024;2023-10-08T04:31:00;100370;;;9.0;100.0
68320;BME280;55168;51.120;17.024;2023-10-08T04:32:00;100370;;;9.0;100.0
68320;BME280;55168;51.120;17.024;2023-10-08T04:33:01;100370;;;9.0;100.0
68320;BME280;55168;51.120;17.024;2023-10-08T04:34:00;100370;;;9.0;100.0
68320;BME280;55168;51.120;17.024;2023-10-08T04:35:00;100370;;;9.0;100.0
68320;BME280;55168;51.120;17.024;2023-10-08T04:36:00;100380;;;9.1;100.0
68320;BME280;55168;51.120;17.024;2023-10-08T04:37:00;100380;;;9.1;100.0
68320;BME280;55168;51.120;17.024;2023-10-08T04:38:00;100380;;;9.1;100.0
68320;BME280;55168;51.120;17.024;2023-10-08T04:39:00;100380;;;9.0;100.0
68320;BME280;55168;51.120;17.024;2023-10-08T04:40:00;100400;;;9.0;100.0
68320;BME280;55168;51.120;17.024;2023-10-08T04:41:00;100400;;;9.0;100.0
68320;BME280;55168;51.120;17.024;2023-10-08T04:42:00;100400;;;9.0;100.0
68320;BME280;55168;51.120;17.024;2023-10-08T04:43:00;100400;;;9.0;100.0
68320;BME280;55168;51.120;17.024;2023-10-08T04:44:00;100400;;;9.0;100.0
68320;BME280;55168;51.120;17.024;2023-10-08T04:45:00;100390;;;9.0;100.0
68320;BME280;55168;51.120;17.024;2023-10-08T04:46:00;100380;;;9.0;100.0
68320;BME280;55168;51.120;17.024;2023-10-08T04:47:01;100390;;;8.9;100.0
68320;BME280;55168;51.120;17.024;2023-10-08T04:48:00;100400;;;8.9;100.0
68320;BME280;55168;51.120;17.024;2023-10-08T04:49:00;100390;;;8.9;100.0
68320;BME280;55168;51.120;17.024;2023-10-08T04:50:00;100400;;;8.9;100.0
68320;BME280;55168;51.120;17.024;2023-10-08T04:51:00;100400;;;8.9;100.0
68320;BME280;55168;51.120;17.024;2023-10-08T04:52:01;100410;;;8.9;100.0
68320;BME280;55168;51.120;17.024;2023-10-08T04:53:00;100420;;;8.9;100.0
68320;BME280;55168;51.120;17.024;2023-10-08T04:54:00;100420;;;9.0;100.0
68320;BME280;55168;51.120;17.024;2023-10-08T04:55:00;100430;;;9.0;100.0
68320;BME280;55168;51.120;17.024;2023-10-08T04:56:00;100430;;;8.9;100.0
68320;BME280;55168;51.120;17.024;2023-10-08T04:57:00;100430;;;9.0;100.0
68320;BME280;55168;51.120;17.024;2023-10-08T04:58:00;100430;;;9.0;100.0
68320;BME280;55168;51.120;17.024;2023-10-08T04:59:00;100430;;;9.0;100.0
68320;BME280;55168;51.120;17.024;2023-10-08T05:00:00;100420;;;8.9;100.0
68320;BME280;55168;51.120;17.024;2023-10-08T05:01:00;100410;;;8.9;100.0
68320;BME280;55168;51.120;17.024;2023-10-08T05:02:00;100410;;;8.9;100.0
68320;BME280;55168;51.120;17.024;2023-10-08T05:03:00;100410;;;8.9;100.0
68320;BME280;55168;51.120;17.024;2023-10-08T05:04:00;100410;;;9.0;100.0
68320;BME280;55168;51.120;17.024;2023-10-08T05:05:00;100410;;;8.9;100.0
68320;BME280;55168;51.120;17.024;2023-10-08T05:06:00;100430;;;8.9;100.0
68320;BME280;55168;51.120;17.024;2023-10-08T05:07:00;100440;;;9.0;100.0
68320;BME280;55168;51.120;17.024;2023-10-08T05:08:00;100450;;;8.9;100.0
68320;BME280;55168;51.120;17.024;2023-10-08T05:09:01;100460;;;8.9;100.0
68320;BME280;55168;51.120;17.024;2023-10-08T05:10:00;100460;;;8.9;100.0
68320;BME280;55168;51.120;17.024;2023-10-08T05:11:00;100460;;;9.0;100.0
68320;BME280;55168;51.120;17.024;2023-10-08T05:12:00;100460;;;9.0;100.0
68320;BME280;55168;51.120;17.024;2023-10-08T05:13:00;100470;;;9.0;100.0
68320;BME280;55168;51.120;17.024;2023-10-08T05:14:00;100470;;;9.1;100.0
68320;BME280;55168;51.120;17.024;2023-10-08T05:15:00;100470;;;9.1;100.0
68320;BME280;55168;51.120;17.024;2023-10-08T05:16:00;100470;;;8.9;100.0
68320;BME280;55168;51.120;17.024;2023-10-08T05:17:01;100470;;;8.8;100.0
68320;BME280;55168;51.120;17.024;2023-10-08T05:18:00;100480;;;8.9;100.0
68320;BME280;55168;51.120;17.024;2023-10-08T05:19:00;100470;;;8.9;100.0
68320;BME280;55168;51.120;17.024;2023-10-08T05:20:00;100470;;;9.0;100.0
68320;BME280;55168;51.120;17.024;2023-10-08T05:21:00;100480;;;9.0;100.0
68320;BME280;55168;51.120;17.024;2023-10-08T05:22:00;100480;;;8.9;100.0
68320;BME280;55168;51.120;17.024;2023-10-08T05:23:00;100480;;;9.0;100.0
68320;BME280;55168;51.120;17.024;2023-10-08T05:24:00;100490;;;9.0;100.0
68320;BME280;55168;51.120;17.024;2023-10-08T05:25:01;100500;;;9.1;100.0
68320;BME280;55168;51.120;17.024;2023-10-08T05:26:00;100510;;;9.1;100.0
68320;BME280;55168;51.120;17.024;2023-10-08T05:27:00;100500;;;9.1;100.0
68320;BME280;55168;51.120;17.024;2023-10-08T05:28:00;100500;;;9.0;100.0
68320;BME280;55168;51.120;17.024;2023-10-08T05:29:00;100510;;;9.0;100.0
68320;BME280;55168;51.120;17.024;2023-10-08T05:30:02;100510;;;9.0;100.0
68320;BME280;55168;51.120;17.024;2023-10-08T05:31:06;100510;;;9.0;100.0